Terminal Aerodrome Forecast
Issued by NWS

Home | Current Version | Previous Version | Text Only | Print | Product List | Glossary On
Versions: 1 2 3 4 5 6 7 8 9 10 11 12 13
191
FTUS45 KABQ 240530
TAFROW
TAF
KROW 240530Z 2406/2506 VRB05KT P6SM SCT120
     FM241800 15010KT P6SM SCT070
     FM242200 17011KT P6SM VCTS BKN070CB
     FM250200 16010KT P6SM BKN100=

USA.gov is the U.S. government's official web portal to all federal, state and local government web resources and services.